Time;durP1;ratioP1;P1;durP2;ratioP2;P2;SDS_P1;SDS_P2;PMS_P1;PMS_P2;Temp;Humidity;BMP_temperature;BMP_pressure;BME280_temperature;BME280_humidity;BME280_pressure;Samples;Min_cycle;Max_cycle;Signal;HPM_P1;HPM_P2
2023/12/19 00:02:36;;;;;;;0.20;0.20;;;;;;;5.30;67.35;101722.31;15711833;28;19924;-51
2023/12/19 00:10:11;;;;;;;0.60;0.60;;;;;;;5.28;67.03;101730.47;15709070;28;20040;-51
2023/12/19 00:17:45;;;;;;;0.80;0.70;;;;;;;5.87;64.99;101728.13;15715482;28;20110;-50
2023/12/19 00:25:19;;;;;;;;;;;;;;;5.42;65.41;101686.50;15697772;28;20044;-45
2023/12/19 00:32:53;;;;;;;0.05;0.05;;;;;;;5.34;65.63;101715.69;15706642;28;19970;-47
2023/12/19 00:40:28;;;;;;;;;;;;;;;5.57;65.13;101727.56;15706982;28;20501;-50
2023/12/19 00:48:01;;;;;;;1.45;1.35;;;;;;;5.81;63.93;101724.25;15688199;28;19920;-45
2023/12/19 00:55:36;;;;;;;;;;;;;;;5.20;66.06;101745.50;15714909;28;20102;-49
2023/12/19 01:03:10;;;;;;;0.00;0.00;;;;;;;5.62;64.81;101743.06;15718012;28;20011;-50
2023/12/19 01:10:44;;;;;;;;;;;;;;;6.01;63.12;101727.59;15681821;28;20095;-48
2023/12/19 01:18:20;;;;;;;0.08;0.08;;;;;;;5.98;62.67;101735.91;15702406;28;19973;-49
2023/12/19 01:25:54;;;;;;;0.00;0.00;;;;;;;5.83;62.98;101745.44;15731102;28;20075;-47
2023/12/19 01:33:28;;;;;;;0.00;0.00;;;;;;;5.71;63.18;101728.84;15706410;28;20072;-50
2023/12/19 01:41:03;;;;;;;0.00;0.00;;;;;;;5.74;63.57;101728.53;15697041;28;20385;-49
2023/12/19 01:48:37;;;;;;;0.30;0.30;;;;;;;5.91;63.46;101726.81;15706690;28;20045;-47
2023/12/19 01:56:13;;;;;;;0.00;0.00;;;;;;;5.60;65.04;101735.25;15686902;28;20070;-49
2023/12/19 02:03:48;;;;;;;0.00;0.00;;;;;;;5.77;63.86;101724.72;15695804;28;20083;-51
2023/12/19 02:11:23;;;;;;;0.25;0.25;;;;;;;6.01;64.32;101705.44;15693627;28;20055;-47
2023/12/19 02:19:03;;;;;;;0.60;0.28;;;;;;;6.06;64.62;101725.31;15701018;28;20100;-48
2023/12/19 02:26:39;;;;;;;0.08;0.08;;;;;;;6.54;63.26;101709.75;15708294;28;20102;-47
2023/12/19 02:34:14;;;;;;;0.05;0.05;;;;;;;6.21;63.35;101685.59;15690121;28;20125;-51
2023/12/19 02:41:49;;;;;;;0.00;0.00;;;;;;;5.93;64.08;101682.25;15711205;28;20112;-47
2023/12/19 02:49:22;;;;;;;0.80;0.52;;;;;;;6.17;64.35;101652.25;15710573;28;20043;-50
2023/12/19 02:56:57;;;;;;;0.30;0.30;;;;;;;6.48;63.22;101644.56;15719674;28;20039;-48
2023/12/19 03:04:32;;;;;;;0.00;0.00;;;;;;;6.50;64.18;101653.22;15708436;28;20076;-47
2023/12/19 03:12:08;;;;;;;1.20;0.70;;;;;;;6.37;64.07;101637.66;15706362;28;20456;-47
2023/12/19 03:19:45;;;;;;;0.08;0.08;;;;;;;6.41;64.86;101635.50;15702132;28;20438;-48
2023/12/19 03:27:20;;;;;;;0.43;0.28;;;;;;;6.49;64.93;101624.88;15717581;28;20095;-47
2023/12/19 03:34:55;;;;;;;0.52;0.52;;;;;;;6.45;66.02;101606.69;15698384;28;20045;-46
2023/12/19 03:42:31;;;;;;;0.00;0.00;;;;;;;6.50;67.06;101597.22;15710409;28;20044;-47
2023/12/19 03:50:05;;;;;;;0.10;0.10;;;;;;;6.59;67.66;101606.91;15699887;28;20052;-49
2023/12/19 03:57:41;;;;;;;2.47;0.73;;;;;;;6.63;68.11;101618.91;15695108;28;20358;-49
2023/12/19 04:05:15;;;;;;;0.00;0.00;;;;;;;7.09;66.56;101613.16;15708076;28;20044;-48
2023/12/19 04:12:57;;;;;;;0.22;0.20;;;;;;;7.32;65.33;101614.16;15726303;28;20076;-50
2023/12/19 04:20:34;;;;;;;0.00;0.00;;;;;;;6.96;65.51;101594.97;15702582;28;20040;-45
2023/12/19 04:28:10;;;;;;;0.00;0.00;;;;;;;7.11;64.91;101600.47;15692960;28;20595;-49
2023/12/19 04:35:45;;;;;;;0.00;0.00;;;;;;;6.87;64.78;101604.78;15709901;28;20470;-45
2023/12/19 04:43:24;;;;;;;0.00;0.00;;;;;;;6.65;64.55;101589.41;15717254;28;20043;-50
2023/12/19 04:50:57;;;;;;;0.00;0.00;;;;;;;6.93;64.62;101605.97;15710130;28;20075;-48
2023/12/19 04:58:32;;;;;;;0.00;0.00;;;;;;;6.94;64.63;101596.94;15706981;28;20047;-47
2023/12/19 05:06:07;;;;;;;0.10;0.10;;;;;;;6.67;64.95;101568.75;15701451;28;20060;-50
2023/12/19 05:13:41;;;;;;;0.35;0.30;;;;;;;6.83;64.59;101570.59;15685714;28;20071;-49
2023/12/19 05:21:20;;;;;;;0.00;0.00;;;;;;;6.84;64.27;101549.06;15687703;28;20472;-46
2023/12/19 05:28:55;;;;;;;0.47;0.45;;;;;;;6.88;64.72;101570.94;15719252;28;20106;-49
2023/12/19 05:36:33;;;;;;;0.00;0.00;;;;;;;7.17;63.87;101570.44;15710366;28;20392;-47
2023/12/19 05:44:11;;;;;;;0.55;0.55;;;;;;;7.15;63.65;101570.59;15694051;28;20037;-47
2023/12/19 05:51:49;;;;;;;0.30;0.30;;;;;;;6.69;64.53;101549.91;15658114;28;20037;-48
2023/12/19 05:59:25;;;;;;;0.08;0.08;;;;;;;6.68;64.32;101540.22;15713058;28;20033;-51
2023/12/19 06:07:00;;;;;;;0.10;0.10;;;;;;;6.44;65.88;101528.53;15745705;28;20529;-46
2023/12/19 06:14:37;;;;;;;;;;;;;;;7.08;64.19;101550.91;15727424;28;20505;-47
2023/12/19 06:22:11;;;;;;;0.00;0.00;;;;;;;7.34;63.76;101549.91;15743663;28;19920;-50
2023/12/19 06:29:47;;;;;;;0.00;0.00;;;;;;;7.30;64.31;101544.06;15742623;28;20398;-47
2023/12/19 06:37:24;;;;;;;0.00;0.00;;;;;;;6.73;66.57;101495.22;15709513;28;20600;-51
2023/12/19 06:45:00;;;;;;;0.17;0.17;;;;;;;6.57;67.67;101485.34;15687606;28;20059;-48
2023/12/19 06:52:34;;;;;;;0.50;0.50;;;;;;;6.68;67.27;101460.19;15696604;28;20091;-49
2023/12/19 07:00:12;;;;;;;0.40;0.40;;;;;;;6.78;67.05;101448.34;15687775;28;20055;-48
2023/12/19 07:07:51;;;;;;;0.05;0.05;;;;;;;6.58;67.73;101452.38;15728371;28;20036;-49
2023/12/19 07:15:25;;;;;;;0.05;0.05;;;;;;;6.37;67.11;101458.16;15740573;28;20043;-50
2023/12/19 07:22:59;;;;;;;0.10;0.10;;;;;;;6.50;67.76;101498.53;15740389;28;20048;-47
2023/12/19 07:30:37;;;;;;;0.88;0.85;;;;;;;6.94;65.76;101484.84;15722702;28;20076;-49
2023/12/19 07:38:11;;;;;;;0.38;0.38;;;;;;;6.85;66.88;101478.72;15731114;28;20044;-48
2023/12/19 07:45:46;;;;;;;0.03;0.03;;;;;;;7.00;66.60;101473.53;15720146;28;20055;-49
2023/12/19 07:53:20;;;;;;;0.10;0.10;;;;;;;6.99;66.20;101468.34;15690674;28;20497;-51
2023/12/19 08:00:55;;;;;;;0.38;0.38;;;;;;;6.95;67.17;101478.53;15682616;28;20220;-51
2023/12/19 08:08:28;;;;;;;3.92;2.45;;;;;;;6.59;70.01;101475.38;15703410;28;20065;-52
2023/12/19 08:16:06;;;;;;;0.00;0.00;;;;;;;6.55;69.80;101485.53;15676860;28;20348;-49
2023/12/19 08:23:42;;;;;;;0.00;0.00;;;;;;;6.88;68.52;101464.19;15692428;28;20040;-47
2023/12/19 08:31:17;;;;;;;1.20;0.40;;;;;;;6.78;68.49;101452.84;15650288;28;20045;-47
2023/12/19 08:38:51;;;;;;;0.00;0.00;;;;;;;6.59;69.62;101422.84;15685578;28;20071;-54
2023/12/19 08:46:29;;;;;;;0.22;0.20;;;;;;;6.53;69.41;101418.19;15700685;28;20071;-49
2023/12/19 08:54:03;;;;;;;0.00;0.00;;;;;;;6.50;70.00;101396.34;15736219;28;20405;-52
2023/12/19 09:01:41;;;;;;;0.03;0.03;;;;;;;6.45;70.03;101380.84;15735487;28;20036;-51
2023/12/19 09:09:14;;;;;;;0.10;0.10;;;;;;;6.39;70.41;101378.88;15718125;28;20076;-50
2023/12/19 09:16:50;;;;;;;0.10;0.10;;;;;;;6.39;69.89;101377.03;15724483;28;20043;-50
2023/12/19 09:24:23;;;;;;;0.00;0.00;;;;;;;6.56;69.42;101374.34;15738408;28;20493;-48
2023/12/19 09:32:01;;;;;;;0.10;0.10;;;;;;;6.49;69.63;101371.53;15748436;28;20513;-48
2023/12/19 09:39:36;;;;;;;0.08;0.08;;;;;;;6.61;69.34;101359.50;15748806;28;20513;-48
2023/12/19 09:47:19;;;;;;;0.35;0.35;;;;;;;6.59;70.28;101355.34;15707295;28;20051;-50
2023/12/19 09:54:55;;;;;;;0.55;0.55;;;;;;;6.42;72.70;101329.69;15747442;28;20667;-47
2023/12/19 10:02:30;;;;;;;;;;;;;;;6.50;72.78;101317.19;15740774;28;20454;-49
2023/12/19 10:10:07;;;;;;;0.00;0.00;;;;;;;6.39;74.01;101296.22;15701078;28;19928;-47
2023/12/19 10:18:06;;;;;;;0.05;0.05;;;;;;;6.35;75.72;101290.38;15725329;28;20072;-50
2023/12/19 10:25:40;;;;;;;0.10;0.10;;;;;;;6.24;76.61;101277.38;15737591;28;20044;-47
2023/12/19 10:33:16;;;;;;;0.38;0.32;;;;;;;6.14;78.51;101253.56;15743670;28;20100;-47
2023/12/19 10:41:01;;;;;;;1.17;0.55;;;;;;;6.40;79.33;101204.53;15725474;28;20520;-48
2023/12/19 10:48:36;;;;;;;1.15;0.90;;;;;;;5.94;81.96;101214.97;15718827;28;20044;-48
2023/12/19 10:56:11;;;;;;;0.17;0.17;;;;;;;6.23;81.71;101203.75;15710323;28;20041;-47
2023/12/19 11:03:55;;;;;;;0.32;0.32;;;;;;;6.11;82.49;101184.63;15743896;28;20044;-46
2023/12/19 11:11:33;;;;;;;0.10;0.10;;;;;;;6.13;83.47;101187.13;15715948;28;20041;-49
2023/12/19 11:19:16;;;;;;;0.85;0.43;;;;;;;6.01;83.45;101167.16;15721219;28;20542;-47
2023/12/19 11:26:54;;;;;;;0.22;0.22;;;;;;;6.20;83.11;101153.47;15682496;28;20037;-48
2023/12/19 11:34:32;;;;;;;0.47;0.47;;;;;;;6.28;83.23;101149.91;15697196;28;20055;-47
2023/12/19 11:42:06;;;;;;;1.08;1.02;;;;;;;6.61;82.40;101130.09;15744036;28;20488;-47
2023/12/19 11:49:41;;;;;;;0.20;0.20;;;;;;;6.34;83.30;101101.22;15672615;28;20044;-46
2023/12/19 11:57:21;;;;;;;1.15;0.80;;;;;;;6.65;82.05;101083.41;15662762;28;20041;-48
2023/12/19 12:05:09;;;;;;;0.40;0.20;;;;;;;6.61;82.83;101094.59;15700115;28;20059;-49
2023/12/19 12:12:43;;;;;;;0.10;0.10;;;;;;;6.67;82.04;101093.06;15721123;28;20436;-46
2023/12/19 12:20:24;;;;;;;0.57;0.57;;;;;;;6.61;83.01;101082.09;15696422;28;20037;-50
2023/12/19 12:28:07;;;;;;;0.70;0.70;;;;;;;6.48;82.52;101068.53;15686751;28;20036;-50
2023/12/19 12:35:42;;;;;;;0.00;0.00;;;;;;;6.48;82.87;101049.00;15722700;28;20064;-46
2023/12/19 12:43:37;;;;;;;1.73;1.17;;;;;;;6.70;82.13;101031.38;15675018;28;20383;-47
2023/12/19 12:51:17;;;;;;;0.57;0.57;;;;;;;6.36;83.38;101035.25;15687867;28;20102;-46
2023/12/19 12:59:00;;;;;;;0.10;0.10;;;;;;;6.69;82.94;101029.72;15719898;28;20031;-48
2023/12/19 13:06:36;;;;;;;0.00;0.00;;;;;;;6.93;81.67;101015.34;15681137;28;20080;-50
2023/12/19 13:14:09;;;;;;;0.45;0.45;;;;;;;6.62;83.58;101008.25;15648614;28;20059;-50
2023/12/19 13:21:46;;;;;;;0.20;0.20;;;;;;;6.54;82.77;101002.97;15664539;28;20056;-46
2023/12/19 13:29:20;;;;;;;0.00;0.00;;;;;;;7.12;81.30;100990.81;15711667;28;20047;-50
2023/12/19 13:36:55;;;;;;;0.22;0.22;;;;;;;6.81;81.78;100961.59;15737807;28;20485;-46
2023/12/19 13:44:29;;;;;;;1.45;0.85;;;;;;;7.11;81.09;100968.63;15726698;28;20046;-48
2023/12/19 13:52:04;;;;;;;0.00;0.00;;;;;;;6.85;82.25;100968.22;15736986;28;20041;-52
2023/12/19 13:59:38;;;;;;;1.95;1.35;;;;;;;6.69;82.42;100955.03;15676385;28;20095;-46
2023/12/19 14:07:14;;;;;;;0.10;0.10;;;;;;;6.70;82.60;100952.16;15721384;28;20460;-49
2023/12/19 14:14:47;;;;;;;0.32;0.32;;;;;;;6.71;83.44;100931.66;15681179;28;20053;-51
2023/12/19 14:22:22;;;;;;;2.97;0.55;;;;;;;6.60;84.46;100927.59;15667989;28;20056;-47
2023/12/19 14:29:57;;;;;;;0.52;0.52;;;;;;;6.60;84.64;100931.06;15685145;28;20047;-50
2023/12/19 14:37:32;;;;;;;2.83;0.63;;;;;;;6.74;83.95;100921.47;15737422;28;20075;-46
2023/12/19 14:45:06;;;;;;;0.00;0.00;;;;;;;6.62;84.69;100917.56;15742084;28;20425;-47
2023/12/19 14:52:42;;;;;;;0.75;0.47;;;;;;;6.68;85.66;100903.53;15728745;28;20102;-48
2023/12/19 15:00:17;;;;;;;0.45;0.17;;;;;;;6.90;84.25;100904.44;15721107;28;20053;-50
2023/12/19 15:07:52;;;;;;;0.38;0.38;;;;;;;6.52;86.80;100901.81;15729671;28;20507;-45
2023/12/19 15:15:26;;;;;;;1.90;0.52;;;;;;;6.46;86.92;100889.19;15701074;28;20040;-45
2023/12/19 15:23:06;;;;;;;0.22;0.22;;;;;;;6.34;88.18;100877.28;15740737;28;20082;-48
2023/12/19 15:30:40;;;;;;;0.73;0.55;;;;;;;6.45;87.91;100870.72;15732550;28;20094;-46
2023/12/19 15:38:16;;;;;;;4.40;0.50;;;;;;;6.45;87.90;100854.72;15740323;28;20072;-48
2023/12/19 15:45:50;;;;;;;0.30;0.30;;;;;;;6.75;87.23;100844.94;15709240;28;20637;-52
2023/12/19 15:53:26;;;;;;;0.45;0.45;;;;;;;6.53;88.42;100858.16;15676852;28;20052;-52
2023/12/19 16:01:00;;;;;;;0.00;0.00;;;;;;;6.82;86.96;100821.84;15675743;28;20056;-50
2023/12/19 16:08:38;;;;;;;0.95;0.45;;;;;;;6.68;87.77;100834.16;15713591;28;20053;-49
2023/12/19 16:16:13;;;;;;;0.30;0.30;;;;;;;6.80;86.54;100848.69;15675581;28;20551;-46
2023/12/19 16:23:48;;;;;;;0.10;0.10;;;;;;;6.51;87.72;100828.16;15675811;28;20049;-50
2023/12/19 16:31:22;;;;;;;0.45;0.45;;;;;;;6.59;87.92;100822.75;15685580;28;20126;-47
2023/12/19 16:38:58;;;;;;;0.88;0.88;;;;;;;6.63;87.58;100794.72;15705987;28;20052;-46
2023/12/19 16:46:32;;;;;;;0.00;0.00;;;;;;;6.69;87.05;100803.81;15716983;28;20040;-45
2023/12/19 16:54:06;;;;;;;;;;;;;;;6.43;88.48;100782.91;15711500;28;20048;-47
2023/12/19 17:01:39;;;;;;;0.17;0.17;;;;;;;6.54;87.58;100789.66;15714849;28;20027;-45
2023/12/19 17:09:16;;;;;;;0.00;0.00;;;;;;;6.38;88.58;100785.28;15720665;28;20109;-45
2023/12/19 17:16:49;;;;;;;1.02;0.80;;;;;;;6.55;88.34;100792.13;15698678;28;20047;-45
2023/12/19 17:24:24;;;;;;;0.40;0.40;;;;;;;6.29;88.14;100765.88;15684028;28;20487;-51
2023/12/19 17:31:58;;;;;;;0.30;0.30;;;;;;;6.65;87.37;100759.84;15707527;28;20102;-46
2023/12/19 17:39:32;;;;;;;2.53;0.75;;;;;;;6.57;88.04;100762.59;15737837;28;20044;-47
2023/12/19 17:47:06;;;;;;;0.20;0.20;;;;;;;6.74;86.34;100752.56;15735942;28;20055;-47
2023/12/19 17:54:41;;;;;;;;;;;;;;;6.79;85.94;100742.19;15746380;28;20637;-50
2023/12/19 18:02:14;;;;;;;1.13;0.93;;;;;;;6.45;88.45;100735.56;15745427;28;20359;-46
2023/12/19 18:09:49;;;;;;;0.63;0.40;;;;;;;6.81;86.94;100732.16;15746286;28;20045;-52
2023/12/19 18:17:24;;;;;;;3.75;1.40;;;;;;;6.28;88.18;100720.75;15701736;28;20059;-45
2023/12/19 18:24:59;;;;;;;1.40;0.50;;;;;;;6.44;87.94;100727.75;15701013;28;20478;-46
2023/12/19 18:32:34;;;;;;;0.30;0.30;;;;;;;6.67;86.80;100722.31;15726764;28;20063;-45
2023/12/19 18:40:10;;;;;;;0.60;0.32;;;;;;;6.39;87.74;100725.66;15725653;28;20499;-52
2023/12/19 18:47:44;;;;;;;0.30;0.22;;;;;;;6.42;87.43;100708.44;15741391;28;20045;-47
2023/12/19 18:55:19;;;;;;;1.00;0.93;;;;;;;6.46;86.47;100675.06;15742615;28;20559;-51
2023/12/19 19:02:52;;;;;;;0.00;0.00;;;;;;;6.16;88.96;100698.25;15721322;28;20021;-48
2023/12/19 19:10:27;;;;;;;;;;;;;;;6.74;85.78;100686.72;15733493;28;20215;-51
2023/12/19 19:18:00;;;;;;;0.47;0.47;;;;;;;6.52;86.50;100687.66;15739337;28;19920;-49
2023/12/19 19:25:36;;;;;;;0.00;0.00;;;;;;;6.41;87.07;100688.13;15673373;28;20047;-47
2023/12/19 19:33:11;;;;;;;0.00;0.00;;;;;;;6.62;86.29;100678.38;15684542;28;20040;-44
2023/12/19 19:40:47;;;;;;;0.60;0.60;;;;;;;6.47;87.09;100668.72;15706121;28;20052;-47
2023/12/19 19:48:21;;;;;;;0.15;0.15;;;;;;;6.26;87.33;100658.81;15737897;28;20043;-50
2023/12/19 19:55:56;;;;;;;0.00;0.00;;;;;;;6.17;88.24;100657.25;15721465;28;20040;-49
2023/12/19 20:03:30;;;;;;;1.40;0.63;;;;;;;6.30;87.67;100655.59;15738266;28;20170;-50
2023/12/19 20:11:05;;;;;;;0.30;0.30;;;;;;;6.21;87.59;100650.53;15712367;28;20065;-50
2023/12/19 20:18:41;;;;;;;0.43;0.43;;;;;;;6.35;87.73;100644.38;15657330;28;20032;-49
2023/12/19 20:26:16;;;;;;;0.45;0.35;;;;;;;6.10;87.72;100649.97;15680112;28;20076;-47
2023/12/19 20:33:50;;;;;;;0.00;0.00;;;;;;;6.51;87.02;100643.34;15736617;28;20041;-45
2023/12/19 20:41:24;;;;;;;1.42;0.63;;;;;;;6.26;86.79;100645.50;15736804;28;20052;-47
2023/12/19 20:48:58;;;;;;;0.00;0.00;;;;;;;6.30;87.15;100636.94;15735652;28;20048;-45
2023/12/19 20:56:34;;;;;;;0.22;0.22;;;;;;;6.16;87.35;100631.63;15735038;28;20049;-48
2023/12/19 21:04:07;;;;;;;0.00;0.00;;;;;;;6.28;87.78;100632.78;15717052;28;20521;-50
2023/12/19 21:11:42;;;;;;;0.88;0.55;;;;;;;6.06;87.63;100631.88;15715689;28;20048;-48
2023/12/19 21:19:16;;;;;;;0.00;0.00;;;;;;;6.37;86.96;100621.03;15736284;28;20039;-52
2023/12/19 21:26:51;;;;;;;0.00;0.00;;;;;;;6.24;87.14;100616.34;15711380;28;20055;-46
2023/12/19 21:34:24;;;;;;;0.10;0.10;;;;;;;6.34;87.31;100624.91;15684921;28;20037;-46
2023/12/19 21:42:03;;;;;;;1.55;1.08;;;;;;;6.57;86.23;100622.06;15703736;28;20040;-45
2023/12/19 21:49:38;;;;;;;0.00;0.00;;;;;;;6.08;88.01;100622.69;15736426;28;20421;-47
2023/12/19 21:57:14;;;;;;;0.00;0.00;;;;;;;6.52;86.77;100613.00;15743312;28;20346;-50
2023/12/19 22:04:51;;;;;;;0.10;0.10;;;;;;;6.38;87.58;100614.66;15739243;28;20444;-46
2023/12/19 22:12:27;;;;;;;0.00;0.00;;;;;;;6.38;86.50;100610.16;15690515;28;20037;-49
2023/12/19 22:20:01;;;;;;;0.03;0.03;;;;;;;6.30;86.82;100604.13;15679707;28;20049;-48
2023/12/19 22:27:37;;;;;;;0.00;0.00;;;;;;;6.50;88.06;100591.84;15729689;28;20102;-45
2023/12/19 22:35:11;;;;;;;0.03;0.03;;;;;;;6.36;87.82;100596.19;15737729;28;20047;-47
2023/12/19 22:42:50;;;;;;;0.10;0.10;;;;;;;6.43;87.14;100590.94;15731301;28;20047;-47
2023/12/19 22:50:24;;;;;;;0.08;0.08;;;;;;;6.46;86.73;100585.25;15720354;28;20091;-45
2023/12/19 22:57:58;;;;;;;;;;;;;;;6.18;88.76;100577.09;15690935;28;20255;-46
2023/12/19 23:05:32;;;;;;;0.55;0.35;;;;;;;6.50;86.76;100543.03;15718401;28;19935;-49
2023/12/19 23:13:07;;;;;;;0.00;0.00;;;;;;;6.38;87.27;100558.69;15698501;28;20048;-51
2023/12/19 23:20:41;;;;;;;0.13;0.13;;;;;;;6.55;86.25;100545.97;15656062;28;20119;-52
2023/12/19 23:28:35;;;;;;;0.20;0.20;;;;;;;6.52;86.90;100544.50;15707543;28;20075;-47
2023/12/19 23:36:14;;;;;;;0.25;0.25;;;;;;;6.52;86.33;100541.00;15716650;28;20041;-46
2023/12/19 23:43:57;;;;;;;0.00;0.00;;;;;;;6.79;85.00;100540.25;15715790;28;20048;-45
2023/12/19 23:51:30;;;;;;;0.35;0.15;;;;;;;6.82;86.24;100531.06;15832609;22;20151;-51
2023/12/19 23:59:09;;;;;;;0.00;0.00;;;;;;;6.39;87.12;100517.72;15854971;28;20036;-48
